Time;durP1;ratioP1;P1;durP2;ratioP2;P2;SDS_P1;SDS_P2;PMS_P1;PMS_P2;Temp;Humidity;BMP_temperature;BMP_pressure;BME280_temperature;BME280_humidity;BME280_pressure;Samples;Min_cycle;Max_cycle;Signal;HPM_P1;HPM_P2
2022/12/04 00:01:28;;;;;;;3.83;2.42;;;;;;;4.05;98.35;95539.00;5146831;27;20265;-75
2022/12/04 00:03:57;;;;;;;3.40;2.03;;;;;;;4.07;99.45;95534.19;5141042;27;20203;-74
2022/12/04 00:06:25;;;;;;;7.30;3.17;;;;;;;3.96;100.00;95545.94;5139228;27;20535;-75
2022/12/04 00:08:52;;;;;;;7.65;3.30;;;;;;;4.02;99.29;95550.25;5141208;27;20273;-75
2022/12/04 00:11:21;;;;;;;3.72;2.38;;;;;;;4.04;99.72;95548.13;5140504;27;20277;-76
2022/12/04 00:13:48;;;;;;;4.03;2.55;;;;;;;4.01;99.92;95548.63;5145359;27;20250;-75
2022/12/04 00:16:17;;;;;;;7.50;3.92;;;;;;;3.91;99.15;95553.97;5133397;27;20213;-75
2022/12/04 00:18:45;;;;;;;6.63;3.42;;;;;;;3.95;99.24;95562.28;5142350;27;20604;-75
2022/12/04 00:21:14;;;;;;;4.03;2.75;;;;;;;3.97;99.70;95560.94;5140401;27;20620;-74
2022/12/04 00:23:42;;;;;;;5.63;3.65;;;;;;;3.90;99.57;95565.75;5144163;27;20197;-74
2022/12/04 00:26:11;;;;;;;6.03;3.10;;;;;;;4.07;99.52;95574.41;5136441;27;20558;-75
2022/12/04 00:28:38;;;;;;;5.40;2.75;;;;;;;4.03;99.16;95567.94;5142858;27;20204;-74
2022/12/04 00:31:06;;;;;;;2.85;2.15;;;;;;;4.12;99.24;95561.00;5147001;27;20278;-74
2022/12/04 00:33:33;;;;;;;12.15;3.25;;;;;;;4.22;99.09;95561.03;5132606;27;20652;-74
2022/12/04 00:36:03;;;;;;;3.83;2.55;;;;;;;3.95;98.00;95547.03;5146090;27;20257;-75
2022/12/04 00:38:30;;;;;;;6.82;2.40;;;;;;;3.90;99.43;95563.06;5143848;27;20231;-75
2022/12/04 00:40:56;;;;;;;11.18;2.38;;;;;;;3.95;99.35;95563.09;5140012;27;20227;-75
2022/12/04 00:43:23;;;;;;;4.13;2.63;;;;;;;4.06;99.42;95564.75;5142401;27;20212;-74
2022/12/04 00:45:50;;;;;;;2.67;1.42;;;;;;;4.12;99.07;95566.34;5134782;27;20205;-75
2022/12/04 00:48:17;;;;;;;3.22;1.90;;;;;;;4.07;98.30;95560.19;5144136;27;20200;-74
2022/12/04 00:50:44;;;;;;;3.42;1.77;;;;;;;3.93;98.75;95562.56;5139311;27;20204;-74
2022/12/04 00:53:13;;;;;;;8.20;2.63;;;;;;;3.90;99.03;95563.06;5139956;27;20232;-75
2022/12/04 00:55:40;;;;;;;4.00;2.55;;;;;;;3.92;98.50;95571.66;5147045;27;20201;-75
2022/12/04 00:58:07;;;;;;;2.70;1.77;;;;;;;3.84;99.18;95564.09;5146222;27;20207;-75
2022/12/04 01:00:34;;;;;;;3.75;1.98;;;;;;;3.90;99.48;95563.06;5139147;27;20289;-75
2022/12/04 01:03:01;;;;;;;3.03;1.98;;;;;;;3.90;99.21;95566.56;5138926;27;20289;-75
2022/12/04 01:05:28;;;;;;;2.22;1.52;;;;;;;3.79;98.95;95556.06;5145505;27;20571;-75
2022/12/04 01:07:55;;;;;;;3.90;2.40;;;;;;;3.84;98.88;95564.91;5132551;27;20209;-75
2022/12/04 01:10:23;;;;;;;5.15;2.30;;;;;;;3.78;99.08;95559.81;5152871;27;20382;-75
2022/12/04 01:12:52;;;;;;;4.38;2.38;;;;;;;3.75;99.53;95560.31;5139145;27;20236;-75
2022/12/04 01:15:19;;;;;;;5.80;2.13;;;;;;;3.63;99.13;95559.75;5145667;27;20197;-75
2022/12/04 01:17:46;;;;;;;1.77;1.63;;;;;;;3.61;99.18;95561.88;5145776;27;20200;-75
2022/12/04 01:20:14;;;;;;;3.85;2.15;;;;;;;3.57;98.86;95557.03;5139784;27;20635;-75
2022/12/04 01:22:41;;;;;;;3.60;2.40;;;;;;;3.36;98.69;95559.88;5138407;27;20257;-75
2022/12/04 01:25:08;;;;;;;4.00;1.55;;;;;;;3.35;99.14;95553.69;5132228;27;20647;-75
2022/12/04 01:27:37;;;;;;;3.00;1.92;;;;;;;3.45;99.21;95550.25;5133307;27;20691;-74
2022/12/04 01:30:05;;;;;;;4.22;2.35;;;;;;;3.32;98.81;95562.25;5144304;27;20266;-75
2022/12/04 01:32:31;;;;;;;3.45;1.90;;;;;;;3.06;100.00;95552.44;5145731;27;20749;-75
2022/12/04 01:34:58;;;;;;;2.33;2.13;;;;;;;3.01;100.00;95544.38;5131335;27;20651;-74
2022/12/04 01:37:25;;;;;;;3.25;1.95;;;;;;;3.21;100.00;95555.22;5145764;27;20245;-74
2022/12/04 01:39:52;;;;;;;4.28;2.60;;;;;;;3.34;100.00;95562.00;5140926;27;20196;-74
2022/12/04 01:42:18;;;;;;;5.20;2.70;;;;;;;3.30;100.00;95561.69;5150034;27;20208;-75
2022/12/04 01:45:18;;;;;;;2.67;1.98;;;;;;;3.39;100.00;95562.84;5134880;27;20660;-75
2022/12/04 01:47:47;;;;;;;5.65;2.63;;;;;;;3.34;99.65;95553.97;5138593;27;20211;-74
2022/12/04 01:50:13;;;;;;;2.58;1.95;;;;;;;3.25;99.84;95550.97;5137868;27;20333;-75
2022/12/04 01:52:40;;;;;;;5.93;2.97;;;;;;;3.22;100.00;95546.13;5143646;27;20232;-75
2022/12/04 01:55:08;;;;;;;5.05;1.90;;;;;;;3.21;100.00;95544.50;5145508;27;20715;-74
2022/12/04 01:57:37;;;;;;;2.17;1.63;;;;;;;3.19;100.00;95542.09;5131940;27;20204;-73
2022/12/04 02:00:08;;;;;;;6.15;2.15;;;;;;;3.23;100.00;95547.75;5145703;27;20192;-73
2022/12/04 02:02:39;;;;;;;4.90;2.85;;;;;;;3.25;100.00;95545.63;5141104;27;20324;-74
2022/12/04 02:05:10;;;;;;;4.22;1.90;;;;;;;3.36;100.00;95536.56;5137596;27;20188;-74
2022/12/04 02:07:39;;;;;;;3.00;1.80;;;;;;;3.38;100.00;95534.44;5140865;27;20198;-74
2022/12/04 02:10:08;;;;;;;3.42;2.30;;;;;;;3.29;100.00;95544.00;5145415;27;20625;-74
2022/12/04 02:12:44;;;;;;;8.40;3.08;;;;;;;3.40;100.00;95532.31;5143012;27;20707;-74
2022/12/04 02:15:17;;;;;;;4.00;2.30;;;;;;;3.38;100.00;95530.97;5131378;27;20200;-73
2022/12/04 02:17:54;;;;;;;7.88;2.30;;;;;;;3.40;100.00;95532.31;5145698;27;20200;-73
2022/12/04 02:20:32;;;;;;;3.50;2.00;;;;;;;3.42;100.00;95527.47;5139915;27;20198;-75
2022/12/04 02:23:20;;;;;;;3.70;2.25;;;;;;;3.38;99.24;95526.41;5135084;27;20272;-73
2022/12/04 02:25:59;;;;;;;1.48;1.38;;;;;;;3.26;100.00;95535.72;5131267;27;20201;-74
2022/12/04 02:28:34;;;;;;;6.10;3.15;;;;;;;3.30;100.00;95524.22;5139854;27;20188;-74
2022/12/04 02:31:04;;;;;;;4.45;2.50;;;;;;;3.36;100.00;95525.88;5137077;27;20257;-74
2022/12/04 02:33:37;;;;;;;3.40;2.05;;;;;;;3.47;100.00;95524.84;5140397;27;20229;-74
2022/12/04 02:36:10;;;;;;;2.90;1.67;;;;;;;3.44;100.00;95522.69;5130516;27;20220;-73
2022/12/04 02:38:41;;;;;;;6.35;2.88;;;;;;;3.46;100.00;95525.91;5142839;27;20875;-73
2022/12/04 02:41:14;;;;;;;5.05;2.65;;;;;;;3.48;100.00;95523.78;5137671;27;20656;-75
2022/12/04 02:43:45;;;;;;;4.18;2.72;;;;;;;3.53;100.00;95514.97;5137317;27;20628;-75
2022/12/04 02:46:18;;;;;;;6.05;3.22;;;;;;;3.49;100.00;95528.06;5137945;27;20624;-74
2022/12/04 02:48:49;;;;;;;4.32;2.03;;;;;;;3.53;100.00;95514.97;5135847;27;20189;-74
2022/12/04 02:51:19;;;;;;;3.85;2.22;;;;;;;3.66;100.00;95527.06;5141318;27;20196;-74
2022/12/04 02:53:50;;;;;;;3.72;2.55;;;;;;;3.63;100.00;95530.28;5147260;27;20904;-75
2022/12/04 02:56:22;;;;;;;8.13;3.25;;;;;;;3.76;100.00;95521.75;5142809;27;20188;-74
2022/12/04 02:58:53;;;;;;;2.97;1.58;;;;;;;3.45;100.00;95529.66;5137035;27;20630;-75
2022/12/04 03:01:26;;;;;;;3.58;2.38;;;;;;;3.41;100.00;95525.91;5137458;27;20655;-74
2022/12/04 03:03:57;;;;;;;3.65;2.72;;;;;;;3.45;100.00;95532.31;5130688;28;20242;-74
2022/12/04 03:06:26;;;;;;;4.95;2.42;;;;;;;3.51;100.00;95536.66;5144904;27;20195;-75
2022/12/04 03:09:00;;;;;;;1.50;1.40;;;;;;;3.58;100.00;95523.81;5142683;27;20193;-74
2022/12/04 03:11:31;;;;;;;6.82;2.53;;;;;;;3.60;100.00;95520.88;5144261;27;20183;-75
2022/12/04 03:14:06;;;;;;;5.80;3.22;;;;;;;3.53;100.00;95515.78;5140089;27;20219;-75
2022/12/04 03:16:38;;;;;;;5.45;2.53;;;;;;;3.59;100.00;95513.91;5137080;27;20233;-74
2022/12/04 03:19:09;;;;;;;4.15;2.40;;;;;;;3.69;100.00;95507.81;5138892;27;20718;-74
2022/12/04 03:21:39;;;;;;;2.92;1.92;;;;;;;3.74;100.00;95513.16;5135976;27;20211;-74
2022/12/04 03:24:13;;;;;;;0.95;0.93;;;;;;;3.87;100.00;95512.66;5137710;27;20205;-74
2022/12/04 03:26:45;;;;;;;2.70;1.80;;;;;;;4.05;100.00;95511.38;5129844;28;20189;-74
2022/12/04 03:29:18;;;;;;;1.52;1.33;;;;;;;4.18;100.00;95506.31;5143566;27;20200;-74
2022/12/04 03:31:48;;;;;;;2.08;0.45;;;;;;;4.29;100.00;95499.91;5139661;27;20192;-75
2022/12/04 03:34:21;;;;;;;0.65;0.65;;;;;;;4.49;99.91;95501.00;5133754;27;20699;-74
2022/12/04 03:36:53;;;;;;;1.30;0.50;;;;;;;4.59;99.46;95509.03;5140868;27;20256;-75
2022/12/04 03:39:26;;;;;;;1.58;1.00;;;;;;;4.65;99.53;95507.97;5136122;27;20204;-74
2022/12/04 03:41:59;;;;;;;1.48;1.10;;;;;;;4.64;99.04;95507.19;5138403;27;20782;-74
2022/12/04 03:44:33;;;;;;;0.90;0.88;;;;;;;4.79;98.17;95511.72;5147695;27;20260;-74
2022/12/04 03:47:05;;;;;;;1.27;0.95;;;;;;;4.83;98.10;95506.63;5136946;27;20241;-75
2022/12/04 03:49:40;;;;;;;0.60;0.60;;;;;;;4.94;97.50;95500.16;5151012;27;20261;-75
2022/12/04 03:52:14;;;;;;;0.70;0.50;;;;;;;4.97;96.98;95508.50;5147182;27;20188;-75
2022/12/04 03:54:46;;;;;;;0.30;0.30;;;;;;;5.04;96.37;95507.41;5130162;28;20534;-75
2022/12/04 03:57:16;;;;;;;1.60;0.60;;;;;;;5.07;96.12;95506.84;5144334;27;20193;-74
2022/12/04 03:59:49;;;;;;;0.85;0.68;;;;;;;5.15;95.29;95498.28;5129866;27;20201;-76
2022/12/04 04:02:21;;;;;;;0.60;0.60;;;;;;;5.17;95.27;95490.75;5136832;27;20189;-74
2022/12/04 04:04:51;;;;;;;0.98;0.55;;;;;;;5.18;95.19;95493.16;5136907;27;20193;-75
2022/12/04 04:07:24;;;;;;;0.77;0.68;;;;;;;5.11;95.45;95497.19;5142300;27;20715;-75
2022/12/04 04:09:55;;;;;;;0.40;0.40;;;;;;;5.14;94.73;95496.66;5143723;27;20585;-74
2022/12/04 04:12:26;;;;;;;1.55;0.68;;;;;;;5.15;94.58;95495.59;5139162;27;20181;-76
2022/12/04 04:26:19;;;;;;;1.20;0.57;;;;;;;5.06;95.00;95505.28;5137708;27;20395;-75
2022/12/04 04:28:46;;;;;;;0.80;0.70;;;;;;;5.05;94.94;95496.41;5142584;27;20652;-75
2022/12/04 04:31:23;;;;;;;1.20;0.70;;;;;;;5.11;94.76;95505.25;5137293;27;20311;-75
2022/12/04 04:33:57;;;;;;;0.98;0.50;;;;;;;5.17;94.49;95506.88;5153641;27;20693;-75
2022/12/04 04:36:33;;;;;;;0.85;0.60;;;;;;;5.13;94.73;95505.78;5140249;27;20296;-75
2022/12/04 04:39:06;;;;;;;1.40;1.25;;;;;;;5.07;94.81;95504.16;5139658;27;20234;-75
2022/12/04 04:41:42;;;;;;;0.57;0.57;;;;;;;5.14;94.65;95507.41;5143461;27;20704;-74
2022/12/04 04:44:17;;;;;;;0.65;0.65;;;;;;;5.14;94.42;95502.03;5137118;27;20191;-75
2022/12/04 04:46:51;;;;;;;0.95;0.65;;;;;;;5.11;94.16;95499.88;5140738;27;20245;-75
2022/12/04 04:49:21;;;;;;;0.30;0.30;;;;;;;5.11;93.99;95507.94;5145718;27;20262;-74
2022/12/04 04:51:48;;;;;;;0.70;0.70;;;;;;;5.18;93.29;95514.66;5147045;27;20265;-74
2022/12/04 04:54:17;;;;;;;0.85;0.65;;;;;;;5.17;93.18;95512.22;5132162;27;20228;-74
2022/12/04 04:56:47;;;;;;;0.47;0.47;;;;;;;5.14;93.25;95512.78;5145947;27;20201;-75
2022/12/04 04:59:14;;;;;;;0.55;0.55;;;;;;;5.07;93.78;95512.22;5141080;27;20286;-74
2022/12/04 05:01:44;;;;;;;0.95;0.57;;;;;;;5.09;93.91;95520.81;5139406;27;20257;-74
2022/12/04 05:04:13;;;;;;;0.70;0.52;;;;;;;5.09;94.15;95526.19;5142634;27;20253;-75
2022/12/04 05:06:39;;;;;;;1.30;0.85;;;;;;;5.07;94.32;95528.34;5146237;27;20666;-74
2022/12/04 05:09:06;;;;;;;0.60;0.60;;;;;;;5.00;94.68;95521.38;5142711;27;20239;-74
2022/12/04 05:11:33;;;;;;;1.25;1.15;;;;;;;4.95;95.14;95524.06;5138955;27;20252;-75
2022/12/04 05:14:00;;;;;;;0.40;0.40;;;;;;;4.97;95.20;95529.97;5141998;27;20233;-74
2022/12/04 05:16:26;;;;;;;2.70;0.98;;;;;;;5.02;95.49;95533.72;5146568;27;20205;-75
2022/12/04 05:21:40;;;;;;;3.97;1.10;;;;;;;4.96;95.71;95532.91;5139073;27;20196;-75
2022/12/04 05:24:07;;;;;;;1.40;0.93;;;;;;;4.98;95.97;95536.94;5138421;27;20201;-75
2022/12/04 05:26:34;;;;;;;0.80;0.68;;;;;;;4.95;96.17;95542.84;5132105;27;20197;-74
2022/12/04 05:29:01;;;;;;;1.33;1.10;;;;;;;4.96;96.28;95549.03;5145949;27;20210;-76
2022/12/04 05:31:28;;;;;;;0.82;0.68;;;;;;;4.92;96.53;95540.69;5145307;27;20254;-75
2022/12/04 05:33:54;;;;;;;1.92;1.02;;;;;;;4.91;96.41;95539.13;5145686;27;20375;-75
2022/12/04 05:36:21;;;;;;;0.45;0.45;;;;;;;4.88;96.55;95541.53;5131235;27;20539;-75
2022/12/04 05:38:49;;;;;;;2.05;1.08;;;;;;;4.89;96.74;95543.13;5145569;27;20197;-75
2022/12/04 05:41:16;;;;;;;7.07;4.10;;;;;;;4.80;97.03;95548.22;5139146;27;20253;-75
2022/12/04 05:43:43;;;;;;;7.05;2.35;;;;;;;4.80;97.01;95545.53;5139840;27;20196;-75
2022/12/04 05:46:10;;;;;;;3.60;1.48;;;;;;;4.78;97.28;95553.06;5131450;27;20250;-76
2022/12/04 05:48:37;;;;;;;3.67;2.28;;;;;;;4.82;97.37;95553.31;5131569;27;20228;-73
2022/12/04 05:51:06;;;;;;;5.85;2.50;;;;;;;4.77;97.80;95553.34;5139659;27;20207;-74
2022/12/04 05:53:33;;;;;;;1.48;1.25;;;;;;;4.75;97.79;95552.81;5149660;27;20228;-75
2022/12/04 05:56:03;;;;;;;2.25;2.03;;;;;;;4.70;97.39;95555.47;5140753;27;20200;-75
2022/12/04 05:58:29;;;;;;;1.30;1.20;;;;;;;4.64;96.96;95560.03;5138102;27;20651;-75
2022/12/04 06:00:56;;;;;;;5.50;1.75;;;;;;;4.70;97.03;95558.97;5142134;27;20209;-75
2022/12/04 06:03:23;;;;;;;2.85;1.58;;;;;;;4.62;96.37;95564.88;5145075;27;20224;-75
2022/12/04 06:05:50;;;;;;;2.10;1.67;;;;;;;4.55;96.97;95561.63;5140918;27;20209;-74
2022/12/04 06:08:16;;;;;;;2.58;2.03;;;;;;;4.50;97.09;95556.28;5137720;27;20208;-75
2022/12/04 06:10:43;;;;;;;3.72;2.15;;;;;;;4.52;97.03;95554.91;5140694;27;20250;-75
2022/12/04 06:13:11;;;;;;;1.33;1.23;;;;;;;4.57;97.70;95556.81;5134046;27;20232;-75
2022/12/04 06:15:39;;;;;;;2.08;1.20;;;;;;;4.59;98.07;95557.34;5140281;27;20200;-75
2022/12/04 06:18:06;;;;;;;3.15;1.38;;;;;;;4.59;97.82;95565.41;5135068;27;20540;-75
2022/12/04 06:20:33;;;;;;;1.00;0.90;;;;;;;4.53;97.56;95571.81;5140331;27;20607;-74
2022/12/04 06:23:00;;;;;;;7.63;1.80;;;;;;;4.42;97.33;95567.50;5131103;27;20228;-75
2022/12/04 06:25:27;;;;;;;4.53;1.83;;;;;;;4.45;96.68;95561.63;5130914;27;20253;-74
2022/12/04 06:27:53;;;;;;;3.50;2.35;;;;;;;4.61;96.81;95568.63;5130587;27;20193;-75
2022/12/04 06:30:22;;;;;;;2.03;1.50;;;;;;;4.65;96.19;95564.31;5130550;27;20228;-75
2022/12/04 06:32:48;;;;;;;3.40;1.90;;;;;;;4.57;96.39;95567.53;5135606;27;20219;-75
2022/12/04 06:35:15;;;;;;;1.45;1.35;;;;;;;4.82;96.68;95559.50;5138603;27;20632;-75
2022/12/04 06:37:42;;;;;;;3.13;1.83;;;;;;;4.94;95.98;95568.09;5144542;27;20288;-74
2022/12/04 06:40:10;;;;;;;4.65;2.25;;;;;;;4.83;96.51;95571.03;5143135;27;20207;-75
2022/12/04 06:42:36;;;;;;;2.70;1.77;;;;;;;4.88;97.47;95571.84;5137233;27;20564;-75
2022/12/04 06:45:04;;;;;;;5.50;2.45;;;;;;;4.92;97.48;95572.13;5148178;27;20196;-75
2022/12/04 06:47:33;;;;;;;2.22;1.90;;;;;;;5.02;97.28;95579.38;5137201;27;20205;-75
2022/12/04 06:50:00;;;;;;;1.58;1.35;;;;;;;5.03;96.97;95581.00;5151273;27;20253;-74
2022/12/04 06:52:27;;;;;;;1.50;1.27;;;;;;;5.08;97.13;95579.09;5144288;27;20197;-75
2022/12/04 06:54:54;;;;;;;2.38;1.85;;;;;;;5.14;97.03;95571.84;5144390;27;20216;-75
2022/12/04 06:57:20;;;;;;;2.53;1.55;;;;;;;5.18;96.91;95572.94;5141640;27;20540;-74
2022/12/04 06:59:47;;;;;;;3.35;2.15;;;;;;;5.24;96.76;95571.84;5144088;27;20196;-74
2022/12/04 07:02:14;;;;;;;1.52;1.25;;;;;;;5.26;96.24;95572.38;5136945;27;20252;-74
2022/12/04 07:04:42;;;;;;;3.40;1.33;;;;;;;5.29;95.72;95558.41;5136481;27;20212;-75
2022/12/04 07:07:09;;;;;;;5.07;2.08;;;;;;;5.36;95.86;95564.28;5129338;28;20258;-75
2022/12/04 07:09:36;;;;;;;1.27;1.00;;;;;;;5.46;94.94;95575.03;5146585;27;20200;-74
2022/12/04 07:12:03;;;;;;;2.13;1.73;;;;;;;5.51;94.81;95566.94;5135748;27;20220;-78
2022/12/04 07:14:31;;;;;;;3.00;1.95;;;;;;;5.60;94.31;95565.31;5129811;28;20648;-74
2022/12/04 07:16:58;;;;;;;1.88;1.15;;;;;;;5.67;93.43;95571.22;5137227;27;20199;-75
2022/12/04 07:19:24;;;;;;;1.70;1.13;;;;;;;5.62;93.39;95567.72;5136344;27;20239;-74
2022/12/04 07:21:52;;;;;;;1.00;0.57;;;;;;;5.66;93.61;95558.03;5142595;27;20201;-73
2022/12/04 07:24:19;;;;;;;3.00;1.50;;;;;;;5.69;93.42;95563.69;5129622;27;20205;-73
2022/12/04 07:26:46;;;;;;;1.58;0.90;;;;;;;5.79;93.37;95572.78;5137344;27;20299;-73
2022/12/04 07:29:13;;;;;;;5.72;2.92;;;;;;;5.77;92.83;95574.94;5135929;27;20208;-74
2022/12/04 07:31:40;;;;;;;1.75;1.65;;;;;;;5.87;92.85;95558.78;5142864;27;20213;-77
2022/12/04 07:34:07;;;;;;;2.35;1.08;;;;;;;6.01;92.08;95565.22;5143066;27;20694;-73
2022/12/04 07:36:34;;;;;;;2.92;1.77;;;;;;;6.04;91.40;95570.03;5137790;27;20315;-73
2022/12/04 07:39:02;;;;;;;3.90;1.60;;;;;;;6.13;91.30;95579.16;5136097;27;20209;-75
2022/12/04 07:41:29;;;;;;;0.60;0.60;;;;;;;6.18;90.72;95579.13;5141519;27;20746;-74
2022/12/04 07:43:55;;;;;;;1.67;1.58;;;;;;;6.31;90.51;95575.81;5143580;27;20673;-74
2022/12/04 07:46:25;;;;;;;2.20;1.30;;;;;;;6.45;89.67;95583.28;5131698;27;20209;-74
2022/12/04 07:48:51;;;;;;;2.80;2.08;;;;;;;6.43;89.87;95578.97;5149663;27;20204;-75
2022/12/04 07:51:21;;;;;;;3.13;1.85;;;;;;;6.33;89.03;95579.03;5143915;27;20201;-75
2022/12/04 07:53:50;;;;;;;6.10;2.65;;;;;;;6.38;89.03;95570.97;5147067;27;20281;-74
2022/12/04 07:56:19;;;;;;;1.00;0.90;;;;;;;6.55;87.84;95564.41;5145385;27;20196;-75
2022/12/04 07:58:46;;;;;;;2.83;1.10;;;;;;;6.59;87.43;95557.34;5135290;27;20197;-74
2022/12/04 08:01:15;;;;;;;1.08;0.98;;;;;;;6.61;87.37;95564.06;5134531;27;20242;-75
2022/12/04 08:03:42;;;;;;;1.77;1.00;;;;;;;6.76;87.23;95571.25;5148001;27;20208;-76
2022/12/04 08:06:09;;;;;;;1.92;1.65;;;;;;;6.86;85.88;95581.13;5146344;27;20876;-74
2022/12/04 08:08:37;;;;;;;2.35;1.42;;;;;;;6.79;85.98;95584.16;5134582;27;20204;-73
2022/12/04 08:11:06;;;;;;;1.25;0.93;;;;;;;6.80;85.77;95566.94;5146622;27;20253;-74
2022/12/04 08:13:34;;;;;;;0.95;0.88;;;;;;;6.80;85.04;95576.88;5139956;27;20254;-76
2022/12/04 08:16:01;;;;;;;3.63;1.42;;;;;;;6.86;84.98;95578.44;5140365;27;20201;-74
2022/12/04 08:18:28;;;;;;;2.08;1.08;;;;;;;6.83;84.10;95563.69;5147087;27;20647;-74
2022/12/04 08:21:02;;;;;;;3.25;1.60;;;;;;;7.18;83.70;95556.38;5146178;27;20607;-75
2022/12/04 08:23:28;;;;;;;4.35;1.67;;;;;;;7.16;82.16;95563.94;5132803;27;20189;-73
2022/12/04 08:25:58;;;;;;;1.33;1.25;;;;;;;7.08;82.44;95566.16;5132237;27;20258;-74
2022/12/04 08:28:25;;;;;;;2.63;1.88;;;;;;;7.02;82.71;95563.78;5141100;27;20197;-75
2022/12/04 08:30:53;;;;;;;2.60;1.77;;;;;;;6.95;82.11;95556.03;5140005;27;20270;-73
2022/12/04 08:33:20;;;;;;;2.53;1.52;;;;;;;7.14;81.98;95559.63;5144830;27;20609;-73
2022/12/04 08:35:46;;;;;;;2.28;1.15;;;;;;;7.29;80.94;95564.09;5148358;27;20232;-74
2022/12/04 08:38:13;;;;;;;2.20;1.15;;;;;;;7.37;80.21;95565.38;5144498;27;20197;-75
2022/12/04 08:40:40;;;;;;;4.80;1.98;;;;;;;7.24;79.97;95572.22;5146778;27;20268;-75
2022/12/04 08:43:07;;;;;;;2.70;1.60;;;;;;;7.33;80.11;95577.81;5141961;27;20248;-74
2022/12/04 08:45:33;;;;;;;1.20;1.10;;;;;;;7.30;79.66;95570.28;5136095;27;20238;-72
2022/12/04 08:48:02;;;;;;;2.85;1.20;;;;;;;7.31;79.36;95561.13;5143661;27;20231;-73
2022/12/04 08:50:28;;;;;;;2.45;1.25;;;;;;;7.37;79.25;95571.56;5146789;27;20280;-74
2022/12/04 08:52:55;;;;;;;1.40;0.80;;;;;;;7.37;78.99;95585.06;5132526;27;20209;-72
2022/12/04 08:55:22;;;;;;;0.30;0.30;;;;;;;7.34;79.67;95560.56;5135965;27;20228;-73
2022/12/04 08:57:50;;;;;;;2.08;1.27;;;;;;;7.50;79.08;95559.31;5141710;27;20716;-74
2022/12/04 09:00:18;;;;;;;2.22;1.40;;;;;;;7.61;78.79;95554.63;5136256;27;20261;-74
2022/12/04 09:02:44;;;;;;;1.00;0.70;;;;;;;7.59;79.52;95546.81;5147762;27;20192;-74
2022/12/04 09:05:13;;;;;;;0.50;0.40;;;;;;;7.78;79.31;95538.81;5138251;27;20193;-73
2022/12/04 09:07:39;;;;;;;2.33;1.40;;;;;;;7.80;78.52;95529.31;5142122;27;20192;-75
2022/12/04 09:10:07;;;;;;;1.15;0.98;;;;;;;7.84;79.14;95529.53;5131885;27;20536;-74
2022/12/04 09:12:34;;;;;;;1.80;0.85;;;;;;;7.77;78.24;95532.59;5144112;27;20666;-74
2022/12/04 09:15:00;;;;;;;0.80;0.80;;;;;;;7.89;78.61;95544.88;5138545;27;20232;-74
2022/12/04 09:17:27;;;;;;;0.70;0.63;;;;;;;8.15;78.36;95538.06;5140716;27;20345;-74
2022/12/04 09:19:54;;;;;;;1.15;0.82;;;;;;;8.02;77.59;95531.50;5145888;27;20205;-73
2022/12/04 09:22:22;;;;;;;2.33;1.08;;;;;;;8.03;77.80;95526.91;5132139;27;20615;-72
2022/12/04 09:24:49;;;;;;;0.73;0.65;;;;;;;8.11;77.36;95520.84;5132314;27;20201;-72
2022/12/04 09:27:15;;;;;;;0.77;0.77;;;;;;;8.10;77.24;95519.22;5144065;27;20252;-73
2022/12/04 09:29:42;;;;;;;1.25;1.00;;;;;;;7.96;77.90;95513.75;5138402;27;20231;-73
2022/12/04 09:32:09;;;;;;;1.40;1.08;;;;;;;7.69;78.90;95513.53;5139969;27;20201;-74
2022/12/04 09:34:36;;;;;;;2.30;2.10;;;;;;;7.81;79.01;95506.63;5145556;27;20237;-74
2022/12/04 09:37:03;;;;;;;1.08;1.00;;;;;;;7.94;79.29;95512.41;5144264;27;20234;-75
2022/12/04 09:39:31;;;;;;;1.15;0.70;;;;;;;7.91;79.07;95511.13;5142808;27;20533;-74
2022/12/04 09:42:18;;;;;;;1.65;1.13;;;;;;;7.91;79.26;95521.13;5130573;27;20274;-75
2022/12/04 09:44:50;;;;;;;1.42;0.93;;;;;;;7.66;80.31;95512.22;5138951;27;20197;-75
2022/12/04 09:47:22;;;;;;;2.63;1.58;;;;;;;7.87;79.95;95503.88;5149213;27;20253;-74
2022/12/04 09:49:53;;;;;;;1.85;1.30;;;;;;;8.03;79.59;95508.81;5130942;27;20197;-72
2022/12/04 09:52:30;;;;;;;0.57;0.57;;;;;;;7.90;80.26;95497.94;5150338;27;20203;-73
2022/12/04 09:55:00;;;;;;;3.25;1.90;;;;;;;7.97;79.74;95482.19;5137890;27;20230;-71
2022/12/04 09:57:35;;;;;;;3.40;1.13;;;;;;;7.98;79.78;95486.47;5143476;27;20207;-72
2022/12/04 10:00:04;;;;;;;2.58;2.05;;;;;;;7.69;81.05;95487.38;5145246;27;20249;-75
2022/12/04 10:02:37;;;;;;;1.15;1.02;;;;;;;7.54;81.44;95478.66;5130676;27;20205;-73
2022/12/04 10:05:05;;;;;;;0.63;0.63;;;;;;;7.68;81.50;95469.59;5144714;27;20736;-73
2022/12/04 10:07:36;;;;;;;5.45;1.25;;;;;;;7.51;81.55;95469.28;5141090;27;20215;-74
2022/12/04 10:10:13;;;;;;;1.35;1.25;;;;;;;7.62;81.37;95457.28;5137542;27;20597;-76
2022/12/04 10:12:53;;;;;;;1.05;0.88;;;;;;;7.65;81.33;95462.09;5139307;27;20207;-75
2022/12/04 10:15:29;;;;;;;1.10;0.93;;;;;;;7.78;80.79;95449.81;5138671;27;20216;-74
2022/12/04 10:18:16;;;;;;;1.52;1.02;;;;;;;7.67;81.06;95451.78;5137251;27;20189;-74
2022/12/04 10:21:00;;;;;;;2.05;0.90;;;;;;;7.61;81.70;95457.56;5139015;27;20260;-75
2022/12/04 10:23:37;;;;;;;1.80;1.20;;;;;;;7.75;81.28;95440.38;5138303;27;20196;-80
2022/12/04 10:26:14;;;;;;;2.35;1.73;;;;;;;7.88;80.54;95435.38;5137033;27;20556;-73
2022/12/04 10:28:47;;;;;;;3.33;1.38;;;;;;;7.88;80.50;95443.47;5139632;27;20224;-75
2022/12/04 10:31:15;;;;;;;2.67;1.15;;;;;;;8.19;80.21;95441.94;5144429;27;20250;-75
2022/12/04 10:33:46;;;;;;;2.70;1.58;;;;;;;8.50;78.93;95429.59;5130269;27;20356;-74
2022/12/04 10:36:17;;;;;;;1.35;0.95;;;;;;;8.47;78.65;95432.88;5143897;27;20327;-74
2022/12/04 10:38:50;;;;;;;1.48;1.05;;;;;;;8.34;78.83;95409.34;5143518;27;20220;-74
2022/12/04 10:41:25;;;;;;;1.67;1.15;;;;;;;8.01;80.16;95430.06;5137244;27;20550;-74
2022/12/04 10:43:53;;;;;;;1.33;0.90;;;;;;;7.89;79.99;95420.78;5139850;27;20196;-75
2022/12/04 10:46:23;;;;;;;0.65;0.63;;;;;;;7.88;80.03;95429.97;5141799;27;20216;-74
2022/12/04 10:48:54;;;;;;;4.75;1.50;;;;;;;8.08;80.42;95408.09;5130172;27;20265;-72
2022/12/04 10:51:22;;;;;;;2.05;1.10;;;;;;;7.84;80.32;95419.75;5140825;27;20228;-73
2022/12/04 10:53:50;;;;;;;0.52;0.47;;;;;;;8.00;79.89;95422.25;5136679;27;20777;-73
2022/12/04 10:56:22;;;;;;;2.47;1.33;;;;;;;7.90;79.50;95423.19;5139291;27;20768;-75
2022/12/04 10:58:57;;;;;;;1.08;1.02;;;;;;;7.88;79.95;95427.28;5144334;27;20189;-74
2022/12/04 11:01:26;;;;;;;0.55;0.55;;;;;;;8.03;79.54;95421.66;5142837;27;20204;-73
2022/12/04 11:04:01;;;;;;;0.90;0.80;;;;;;;8.10;78.81;95430.19;5136536;27;20539;-73
2022/12/04 11:06:29;;;;;;;1.55;1.23;;;;;;;8.17;78.41;95425.25;5134760;27;20272;-74
2022/12/04 11:08:58;;;;;;;3.08;1.90;;;;;;;7.91;79.15;95413.22;5138616;27;20222;-75
2022/12/04 11:11:30;;;;;;;1.83;1.17;;;;;;;7.64;79.62;95409.25;5136924;27;20205;-73
2022/12/04 11:14:13;;;;;;;2.30;0.98;;;;;;;7.69;79.38;95428.03;5140871;27;20666;-74
2022/12/04 11:16:43;;;;;;;2.53;1.52;;;;;;;7.43;80.63;95422.16;5135562;27;20208;-73
2022/12/04 11:19:25;;;;;;;1.50;1.00;;;;;;;7.44;81.36;95404.09;5137529;27;20226;-74
2022/12/04 11:21:55;;;;;;;1.33;0.82;;;;;;;7.58;80.64;95415.00;5140282;27;20220;-75
2022/12/04 11:24:26;;;;;;;0.73;0.73;;;;;;;7.91;80.21;95424.00;5144295;27;20204;-76
2022/12/04 11:26:57;;;;;;;4.13;1.45;;;;;;;7.68;80.34;95426.44;5139819;27;20189;-75
2022/12/04 11:29:32;;;;;;;3.63;1.88;;;;;;;7.76;79.80;95427.72;5139806;27;20891;-74
2022/12/04 11:32:00;;;;;;;5.32;2.33;;;;;;;7.84;79.50;95419.75;5143885;27;20558;-73
2022/12/04 11:34:35;;;;;;;1.27;1.17;;;;;;;7.95;79.43;95414.22;5143734;27;20196;-74
2022/12/04 11:37:05;;;;;;;1.42;1.20;;;;;;;8.02;79.84;95410.06;5141726;27;20196;-74
2022/12/04 11:39:37;;;;;;;3.55;1.63;;;;;;;8.40;78.56;95407.38;5135896;27;20245;-75
2022/12/04 11:42:16;;;;;;;4.95;1.48;;;;;;;8.57;77.80;95406.84;5141516;27;20292;-73
2022/12/04 11:44:51;;;;;;;2.13;1.10;;;;;;;8.26;78.11;95415.38;5139418;27;20236;-74
2022/12/04 11:47:21;;;;;;;1.83;1.20;;;;;;;8.18;78.49;95424.97;5137906;27;20192;-74
2022/12/04 11:50:02;;;;;;;1.55;1.23;;;;;;;7.89;79.33;95431.59;5138791;27;20202;-75
2022/12/04 11:52:42;;;;;;;1.77;1.52;;;;;;;7.89;79.72;95427.00;5139880;27;20198;-74
2022/12/04 11:55:15;;;;;;;3.97;1.77;;;;;;;7.79;80.23;95430.59;5138144;27;20204;-75
2022/12/04 11:57:51;;;;;;;1.73;1.02;;;;;;;7.94;80.12;95423.41;5140942;27;20189;-75
2022/12/04 12:00:20;;;;;;;1.75;1.38;;;;;;;8.09;79.62;95423.19;5141428;27;20213;-75
2022/12/04 12:03:01;;;;;;;1.58;1.17;;;;;;;7.96;79.87;95422.03;5141221;27;20189;-74
2022/12/04 12:05:44;;;;;;;3.30;1.25;;;;;;;8.06;79.34;95418.41;5139424;27;20521;-74
2022/12/04 12:08:21;;;;;;;2.03;1.08;;;;;;;8.14;78.98;95418.53;5140051;27;20276;-74